createdAt,value
2022-12-04T00:00:48.824Z,50.03
2022-12-04T00:01:50.409Z,48.95
2022-12-04T00:02:51.989Z,48.75
2022-12-04T00:03:54.538Z,48.10
2022-12-04T00:04:56.223Z,48.47
2022-12-04T00:06:09.353Z,44.72
2022-12-04T00:07:10.931Z,46.45
2022-12-04T00:08:12.518Z,44.90
2022-12-04T00:09:14.076Z,51.72
2022-12-04T00:10:15.742Z,48.90
2022-12-04T00:11:19.183Z,47.30
2022-12-04T00:12:20.788Z,48.20
2022-12-04T00:13:22.357Z,48.67
2022-12-04T00:14:23.923Z,49.05
2022-12-04T00:15:26.707Z,51.85
2022-12-04T00:16:31.823Z,47.78
2022-12-04T00:17:33.473Z,44.03
2022-12-04T00:18:35.289Z,47.25
2022-12-04T00:19:36.825Z,49.88
2022-12-04T00:20:41.179Z,51.88
2022-12-04T00:21:42.767Z,49.90
2022-12-04T00:22:44.309Z,47.35
2022-12-04T00:23:46.172Z,48.63
2022-12-04T00:24:47.799Z,49.28
2022-12-04T00:25:49.362Z,50.78
2022-12-04T00:26:50.957Z,51.53
2022-12-04T00:27:52.495Z,49.58
2022-12-04T00:28:54.151Z,48.00
2022-12-04T00:29:56.004Z,45.20
2022-12-04T00:30:57.781Z,47.28
2022-12-04T00:31:59.432Z,47.93
2022-12-04T00:33:01.035Z,52.47
2022-12-04T00:34:07.766Z,50.50
2022-12-04T00:35:10.073Z,49.47
2022-12-04T00:36:13.784Z,49.88
2022-12-04T00:37:15.328Z,49.47
2022-12-04T00:38:16.887Z,45.00
2022-12-04T00:39:18.506Z,46.47
2022-12-04T00:40:20.041Z,46.33
2022-12-04T00:41:23.980Z,43.20
2022-12-04T00:42:25.583Z,42.57
2022-12-04T00:43:27.252Z,43.45
2022-12-04T00:44:28.800Z,46.22
2022-12-04T00:45:30.389Z,43.83
2022-12-04T00:46:32.299Z,44.05
2022-12-04T00:47:33.849Z,41.05
2022-12-04T00:48:35.744Z,39.03
2022-12-04T00:49:37.444Z,40.60
2022-12-04T00:50:39.014Z,41.70
2022-12-04T00:51:40.632Z,39.65
2022-12-04T00:52:42.166Z,40.30
2022-12-04T00:53:43.875Z,41.30
2022-12-04T00:54:45.477Z,42.72
2022-12-04T00:55:47.055Z,44.67
2022-12-04T00:56:48.599Z,41.63
2022-12-04T00:57:50.145Z,42.35
2022-12-04T00:58:55.651Z,42.78
2022-12-04T00:59:57.485Z,40.72
2022-12-04T01:01:03.710Z,40.45
2022-12-04T01:02:05.329Z,46.92
2022-12-04T01:03:07.191Z,42.20
2022-12-04T01:04:08.902Z,43.58
2022-12-04T01:05:10.493Z,44.03
2022-12-04T01:06:20.738Z,42.53
2022-12-04T01:07:22.284Z,42.22
2022-12-04T01:08:23.851Z,42.30
2022-12-04T01:09:25.460Z,44.42
2022-12-04T01:10:27.025Z,41.28
2022-12-04T01:11:29.099Z,41.45
2022-12-04T01:12:30.723Z,47.80
2022-12-04T01:13:32.272Z,46.40
2022-12-04T01:14:33.840Z,44.95
2022-12-04T01:15:39.407Z,43.20
2022-12-04T01:16:41.136Z,43.03
2022-12-04T01:17:42.859Z,48.63
2022-12-04T01:18:44.594Z,47.03
2022-12-04T01:19:46.144Z,46.35
2022-12-04T01:20:51.683Z,46.30
2022-12-04T01:21:53.304Z,50.63
2022-12-04T01:22:54.898Z,43.40
2022-12-04T01:23:56.914Z,50.03
2022-12-04T01:24:58.473Z,45.42
2022-12-04T01:26:00.086Z,43.05
2022-12-04T01:27:01.753Z,43.67
2022-12-04T01:28:03.328Z,46.03
2022-12-04T01:29:04.951Z,45.53
2022-12-04T01:30:07.173Z,47.70
2022-12-04T01:31:13.925Z,49.15
2022-12-04T01:32:15.633Z,49.05
2022-12-04T01:33:17.271Z,45.03
2022-12-04T01:34:18.906Z,48.50
2022-12-04T01:35:20.474Z,44.88
2022-12-04T01:36:24.106Z,45.55
2022-12-04T01:37:25.729Z,45.75
2022-12-04T01:38:27.453Z,44.60
2022-12-04T01:39:29.084Z,48.25
2022-12-04T01:40:30.653Z,46.85
2022-12-04T01:41:32.322Z,46.22
2022-12-04T01:42:34.291Z,46.55
2022-12-04T01:43:36.492Z,48.10
2022-12-04T01:44:38.594Z,48.00
2022-12-04T01:45:42.550Z,48.40
2022-12-04T01:46:45.796Z,47.30
2022-12-04T01:47:47.355Z,50.75
2022-12-04T01:48:52.398Z,51.22
2022-12-04T01:49:54.350Z,51.67
2022-12-04T01:51:04.263Z,51.13
2022-12-04T01:52:08.928Z,49.72
2022-12-04T01:53:10.968Z,59.17
2022-12-04T01:54:17.277Z,57.35
2022-12-04T01:55:18.980Z,61.87
2022-12-04T01:56:24.080Z,53.92
2022-12-04T01:57:27.016Z,54.55
2022-12-04T01:58:30.981Z,52.47
2022-12-04T01:59:35.459Z,49.70
2022-12-04T02:00:37.063Z,56.72
2022-12-04T02:01:50.540Z,55.17
2022-12-04T02:02:52.242Z,52.97
2022-12-04T02:03:53.829Z,53.90
2022-12-04T02:04:55.497Z,56.42
2022-12-04T02:05:57.095Z,59.60
2022-12-04T02:06:58.695Z,58.65
2022-12-04T02:08:02.164Z,60.17
2022-12-04T02:09:03.788Z,61.80
2022-12-04T02:10:08.513Z,64.90
2022-12-04T02:11:23.282Z,64.65
2022-12-04T02:13:15.602Z,60.15
2022-12-04T02:14:21.520Z,60.67
2022-12-04T02:15:50.611Z,53.70
2022-12-04T02:17:04.759Z,53.30
2022-12-04T02:18:54.284Z,50.50
2022-12-04T02:20:39.422Z,52.10
2022-12-04T02:21:41.944Z,48.72
2022-12-04T02:23:24.843Z,48.92
2022-12-04T02:24:50.203Z,49.72
2022-12-04T02:26:00.112Z,42.30
2022-12-04T02:27:52.992Z,45.60
2022-12-04T02:29:48.795Z,45.42
2022-12-04T02:30:51.817Z,44.92
2022-12-04T02:32:17.122Z,45.67
2022-12-04T02:33:23.527Z,43.87
2022-12-04T02:34:46.313Z,46.08
2022-12-04T02:36:10.152Z,41.55
2022-12-04T02:37:17.604Z,43.50
2022-12-04T02:38:25.693Z,46.00
2022-12-04T02:39:30.499Z,48.33
2022-12-04T02:40:57.705Z,46.92
2022-12-04T02:42:17.125Z,41.75
2022-12-04T02:43:20.914Z,46.28
2022-12-04T02:44:25.378Z,48.38
2022-12-04T02:45:30.465Z,41.47
2022-12-04T02:46:43.913Z,47.28
2022-12-04T02:47:45.474Z,44.03
2022-12-04T02:48:48.458Z,43.75
2022-12-04T02:49:53.371Z,46.55
2022-12-04T02:50:55.186Z,46.42
2022-12-04T02:51:57.922Z,46.25
2022-12-04T02:53:11.197Z,41.45
2022-12-04T02:54:25.011Z,47.13
2022-12-04T02:55:30.938Z,42.95
2022-12-04T02:56:33.855Z,44.73
2022-12-04T02:57:36.340Z,43.45
2022-12-04T02:59:05.472Z,50.05
2022-12-04T03:00:09.007Z,48.97
2022-12-04T03:01:21.680Z,43.00
2022-12-04T03:02:37.894Z,44.67
2022-12-04T03:03:39.510Z,43.90
2022-12-04T03:04:41.120Z,41.60
2022-12-04T03:06:02.267Z,44.33
2022-12-04T03:07:13.884Z,38.72
2022-12-04T03:08:17.585Z,39.83
2022-12-04T03:09:23.225Z,46.20
2022-12-04T03:10:30.184Z,45.05
2022-12-04T03:11:32.035Z,43.33
2022-12-04T03:12:42.499Z,47.05
2022-12-04T03:13:47.509Z,44.75
2022-12-04T03:15:04.196Z,42.13
2022-12-04T03:16:09.375Z,47.13
2022-12-04T03:17:15.933Z,49.13
2022-12-04T03:18:29.070Z,45.55
2022-12-04T03:19:42.284Z,46.53
2022-12-04T03:20:44.272Z,41.08
2022-12-04T03:21:52.046Z,44.08
2022-12-04T03:22:56.676Z,49.28
2022-12-04T03:24:10.487Z,41.78
2022-12-04T03:25:12.098Z,44.80
2022-12-04T03:26:41.328Z,47.45
2022-12-04T03:27:45.796Z,43.33
2022-12-04T03:28:57.359Z,44.38
2022-12-04T03:30:01.894Z,43.47
2022-12-04T03:31:05.184Z,44.27
2022-12-04T03:32:06.890Z,41.15
2022-12-04T03:33:12.625Z,40.42
2022-12-04T03:34:16.665Z,41.13
2022-12-04T03:35:26.913Z,35.28
2022-12-04T03:36:56.798Z,40.58
2022-12-04T03:38:02.429Z,41.63
2022-12-04T03:39:14.149Z,38.05
2022-12-04T03:40:20.124Z,43.58
2022-12-04T03:41:39.356Z,40.40
2022-12-04T03:42:46.757Z,41.38
2022-12-04T03:44:14.461Z,40.85
2022-12-04T03:46:02.658Z,37.75
2022-12-04T03:47:14.863Z,40.05
2022-12-04T03:48:23.145Z,40.35
2022-12-04T03:49:33.267Z,39.00
2022-12-04T03:50:38.947Z,40.40
2022-12-04T03:51:55.034Z,43.17
2022-12-04T03:53:25.839Z,40.90
2022-12-04T03:54:30.912Z,42.60
2022-12-04T03:56:16.426Z,38.40
2022-12-04T03:57:23.999Z,37.90
2022-12-04T03:58:28.520Z,39.08
2022-12-04T03:59:39.198Z,37.55
2022-12-04T04:00:41.949Z,40.00
2022-12-04T04:01:46.026Z,44.63
2022-12-04T04:03:03.675Z,39.60
2022-12-04T04:04:05.334Z,40.03
2022-12-04T04:05:08.830Z,41.03
2022-12-04T04:06:14.182Z,38.87
2022-12-04T04:07:22.330Z,40.00
2022-12-04T04:08:29.565Z,42.10
2022-12-04T04:09:34.212Z,40.63
2022-12-04T04:10:35.767Z,42.28
2022-12-04T04:12:04.538Z,38.38
2022-12-04T04:13:24.795Z,39.35
2022-12-04T04:15:06.974Z,44.33
2022-12-04T04:16:27.514Z,43.42
2022-12-04T04:17:48.804Z,38.75
2022-12-04T04:19:10.193Z,35.53
2022-12-04T04:20:39.471Z,40.72
2022-12-04T04:21:59.381Z,38.42
2022-12-04T04:23:19.202Z,34.15
2022-12-04T04:24:39.220Z,38.53
2022-12-04T04:25:41.714Z,39.92
2022-12-04T04:26:45.685Z,39.40
2022-12-04T04:27:54.082Z,42.00
2022-12-04T04:28:55.640Z,38.53
2022-12-04T04:29:57.542Z,38.60
2022-12-04T04:31:17.600Z,35.30
2022-12-04T04:32:26.538Z,43.22
2022-12-04T04:33:28.091Z,39.17
2022-12-04T04:34:35.407Z,41.97
2022-12-04T04:35:47.225Z,38.13
2022-12-04T04:37:15.812Z,39.45
2022-12-04T04:38:28.444Z,37.00
2022-12-04T04:39:52.320Z,37.45
2022-12-04T04:41:00.836Z,40.03
2022-12-04T04:42:07.932Z,39.17
2022-12-04T04:43:27.392Z,39.87
2022-12-04T04:44:39.503Z,40.15
2022-12-04T04:45:41.081Z,34.60
2022-12-04T04:46:47.167Z,37.80
2022-12-04T04:48:08.620Z,40.65
2022-12-04T04:49:10.647Z,40.67
2022-12-04T04:50:12.345Z,34.13
2022-12-04T04:51:13.958Z,40.83
2022-12-04T04:52:16.943Z,39.65
2022-12-04T04:53:28.453Z,48.13
2022-12-04T04:54:30.321Z,38.90
2022-12-04T04:55:34.595Z,35.72
2022-12-04T04:56:45.566Z,39.22
2022-12-04T04:57:47.161Z,33.53
2022-12-04T04:58:48.708Z,36.58
2022-12-04T04:59:50.258Z,34.95
2022-12-04T05:00:58.313Z,33.28
2022-12-04T05:01:59.894Z,35.65
2022-12-04T05:03:01.733Z,35.03
2022-12-04T05:04:04.308Z,33.45
2022-12-04T05:05:06.216Z,33.83
2022-12-04T05:06:07.820Z,46.30
2022-12-04T05:07:09.380Z,39.13
2022-12-04T05:08:11.076Z,47.25
2022-12-04T05:09:13.086Z,40.63
2022-12-04T05:10:14.645Z,44.75
2022-12-04T05:11:17.187Z,60.75
2022-12-04T05:12:18.731Z,56.72
2022-12-04T05:13:20.507Z,52.70
2022-12-04T05:14:22.076Z,47.80
2022-12-04T05:15:23.621Z,52.07
2022-12-04T05:16:25.287Z,52.60
2022-12-04T05:17:26.947Z,49.90
2022-12-04T05:18:28.638Z,53.92
2022-12-04T05:19:51.341Z,45.70
2022-12-04T05:20:52.885Z,60.20
2022-12-04T05:21:54.473Z,47.40
2022-12-04T05:22:56.039Z,48.97
2022-12-04T05:23:57.666Z,69.47
2022-12-04T05:24:59.528Z,66.65
2022-12-04T05:26:04.689Z,64.47
2022-12-04T05:27:06.220Z,59.53
2022-12-04T05:28:07.814Z,58.33
2022-12-04T05:29:09.441Z,43.50
2022-12-04T05:30:11.608Z,42.47
2022-12-04T05:31:13.229Z,41.03
2022-12-04T05:32:14.902Z,38.95
2022-12-04T05:33:16.454Z,37.67
2022-12-04T05:34:18.080Z,40.40
2022-12-04T05:35:19.639Z,46.28
2022-12-04T05:36:21.540Z,41.10
2022-12-04T05:37:23.537Z,34.25
2022-12-04T05:38:25.131Z,34.58
2022-12-04T05:39:26.737Z,33.78
2022-12-04T05:40:28.286Z,31.23
2022-12-04T05:41:29.841Z,32.20
2022-12-04T05:42:31.402Z,31.77
2022-12-04T05:43:33.138Z,30.65
2022-12-04T05:44:34.764Z,32.67
2022-12-04T05:45:36.372Z,32.92
2022-12-04T05:46:38.039Z,33.87
2022-12-04T05:47:43.459Z,29.88
2022-12-04T05:48:44.991Z,29.30
2022-12-04T05:49:46.587Z,32.45
2022-12-04T05:50:48.148Z,29.85
2022-12-04T05:51:50.785Z,32.90
2022-12-04T05:52:52.361Z,34.35
2022-12-04T05:53:53.968Z,33.28
2022-12-04T05:54:55.618Z,30.65
2022-12-04T05:55:57.974Z,31.13
2022-12-04T05:56:59.655Z,31.07
2022-12-04T05:58:01.218Z,35.83
2022-12-04T05:59:02.864Z,33.67
2022-12-04T06:00:05.360Z,28.20
2022-12-04T06:01:11.663Z,30.35
2022-12-04T06:02:13.323Z,32.13
2022-12-04T06:03:15.009Z,30.50
2022-12-04T06:04:16.866Z,30.17
2022-12-04T06:05:18.497Z,28.33
2022-12-04T06:06:22.637Z,33.65
2022-12-04T06:07:24.363Z,29.57
2022-12-04T06:08:25.935Z,30.83
2022-12-04T06:09:27.460Z,29.23
2022-12-04T06:10:29.469Z,29.83
2022-12-04T06:11:32.900Z,30.58
2022-12-04T06:12:34.458Z,29.83
2022-12-04T06:13:36.052Z,24.67
2022-12-04T06:14:39.827Z,28.23
2022-12-04T06:15:41.742Z,28.58
2022-12-04T06:16:44.846Z,28.52
2022-12-04T06:17:46.439Z,28.83
2022-12-04T06:18:55.878Z,28.70
2022-12-04T06:19:57.812Z,28.70
2022-12-04T06:20:59.809Z,26.38
2022-12-04T06:22:01.419Z,29.25
2022-12-04T06:23:02.963Z,29.00
2022-12-04T06:24:04.988Z,27.10
2022-12-04T06:25:07.119Z,28.05
2022-12-04T06:26:08.842Z,25.15
2022-12-04T06:27:27.575Z,25.23
2022-12-04T06:28:29.811Z,24.93
2022-12-04T06:29:31.443Z,27.10
2022-12-04T06:30:33.847Z,26.77
2022-12-04T06:31:36.397Z,25.48
2022-12-04T06:32:38.028Z,29.65
2022-12-04T06:33:39.813Z,25.55
2022-12-04T06:34:41.480Z,24.98
2022-12-04T06:35:43.045Z,28.17
2022-12-04T06:36:44.600Z,32.90
2022-12-04T06:37:46.196Z,26.05
2022-12-04T06:38:48.479Z,24.57
2022-12-04T06:39:50.043Z,24.65
2022-12-04T06:40:51.638Z,27.50
2022-12-04T06:41:53.245Z,25.77
2022-12-04T06:42:54.793Z,24.58
2022-12-04T06:43:56.415Z,25.80
2022-12-04T06:44:57.957Z,25.08
2022-12-04T06:46:04.348Z,26.75
2022-12-04T06:47:06.298Z,25.73
2022-12-04T06:48:08.448Z,22.67
2022-12-04T06:49:10.080Z,22.07
2022-12-04T06:50:11.869Z,24.08
2022-12-04T06:51:18.073Z,22.95
2022-12-04T06:52:19.699Z,24.58
2022-12-04T06:53:21.261Z,23.65
2022-12-04T06:54:22.849Z,22.85
2022-12-04T06:55:24.456Z,24.33
2022-12-04T06:56:28.074Z,27.30
2022-12-04T06:57:29.626Z,25.90
2022-12-04T06:58:31.395Z,25.58
2022-12-04T06:59:33.987Z,24.53
2022-12-04T07:00:35.847Z,25.85
2022-12-04T07:01:37.529Z,29.73
2022-12-04T07:02:39.273Z,26.23
2022-12-04T07:03:44.858Z,25.58
2022-12-04T07:04:55.505Z,24.35
2022-12-04T07:05:57.076Z,24.23
2022-12-04T07:06:58.684Z,23.75
2022-12-04T07:08:00.332Z,30.65
2022-12-04T07:09:04.817Z,33.65
2022-12-04T07:10:07.085Z,26.67
2022-12-04T07:11:08.842Z,26.35
2022-12-04T07:12:10.385Z,25.60
2022-12-04T07:13:12.018Z,22.58
2022-12-04T07:14:13.803Z,25.88
2022-12-04T07:15:15.488Z,28.73
2022-12-04T07:16:19.030Z,22.83
2022-12-04T07:17:20.664Z,27.20
2022-12-04T07:18:22.285Z,29.25
2022-12-04T07:19:23.932Z,26.30
2022-12-04T07:20:25.516Z,23.93
2022-12-04T07:21:28.853Z,29.38
2022-12-04T07:22:30.392Z,29.20
2022-12-04T07:23:31.972Z,26.85
2022-12-04T07:24:33.651Z,26.50
2022-12-04T07:25:39.590Z,27.27
2022-12-04T07:26:41.170Z,27.10
2022-12-04T07:27:43.605Z,23.90
2022-12-04T07:28:47.723Z,24.50
2022-12-04T07:29:51.963Z,24.73
2022-12-04T07:30:53.550Z,25.00
2022-12-04T07:31:55.296Z,23.77
2022-12-04T07:32:57.032Z,24.75
2022-12-04T07:33:58.634Z,26.75
2022-12-04T07:35:00.291Z,27.77
2022-12-04T07:36:02.841Z,25.23
2022-12-04T07:37:04.459Z,30.20
2022-12-04T07:38:06.067Z,27.13
2022-12-04T07:39:07.645Z,26.98
2022-12-04T07:40:09.524Z,25.80
2022-12-04T07:41:12.008Z,28.57
2022-12-04T07:42:13.564Z,26.38
2022-12-04T07:43:15.538Z,26.65
2022-12-04T07:44:17.102Z,24.38
2022-12-04T07:45:18.663Z,27.08
2022-12-04T07:46:22.243Z,26.65
2022-12-04T07:47:24.066Z,24.30
2022-12-04T07:48:31.778Z,24.23
2022-12-04T07:49:34.869Z,25.20
2022-12-04T07:50:36.445Z,25.67
2022-12-04T07:51:38.055Z,23.73
2022-12-04T07:52:39.819Z,26.70
2022-12-04T07:53:41.419Z,25.95
2022-12-04T07:54:43.062Z,26.23
2022-12-04T07:55:44.616Z,26.42
2022-12-04T07:56:46.277Z,24.05
2022-12-04T07:57:47.865Z,24.23
2022-12-04T07:58:49.432Z,22.23
2022-12-04T07:59:50.993Z,23.67
2022-12-04T08:00:52.620Z,23.02
2022-12-04T08:01:54.378Z,25.37
2022-12-04T08:02:55.952Z,23.35
2022-12-04T08:03:58.494Z,23.73
2022-12-04T08:05:00.204Z,24.58
2022-12-04T08:06:02.794Z,23.92
2022-12-04T08:07:04.481Z,24.23
2022-12-04T08:08:06.172Z,23.02
2022-12-04T08:09:10.029Z,25.70
2022-12-04T08:10:11.938Z,25.38
2022-12-04T08:11:18.460Z,24.33
2022-12-04T08:12:20.096Z,24.23
2022-12-04T08:13:21.673Z,28.67
2022-12-04T08:14:23.235Z,24.23
2022-12-04T08:15:24.789Z,26.98
2022-12-04T08:16:27.114Z,24.55
2022-12-04T08:17:28.779Z,25.33
2022-12-04T08:18:30.461Z,25.88
2022-12-04T08:19:32.015Z,22.75
2022-12-04T08:20:33.549Z,22.25
2022-12-04T08:21:35.245Z,23.80
2022-12-04T08:22:36.813Z,28.60
2022-12-04T08:23:38.771Z,27.98
2022-12-04T08:24:40.326Z,25.88
2022-12-04T08:25:42.058Z,26.33
2022-12-04T08:26:43.710Z,24.55
2022-12-04T08:27:47.670Z,26.08
2022-12-04T08:28:49.461Z,24.23
2022-12-04T08:29:51.083Z,25.63
2022-12-04T08:30:52.674Z,22.95
2022-12-04T08:31:54.238Z,26.30
2022-12-04T08:32:55.793Z,29.17
2022-12-04T08:33:57.983Z,23.98
2022-12-04T08:34:59.605Z,22.42
2022-12-04T08:36:01.325Z,21.13
2022-12-04T08:37:03.048Z,24.33
2022-12-04T08:38:04.615Z,21.70
2022-12-04T08:39:06.238Z,23.67
2022-12-04T08:40:08.136Z,23.08
2022-12-04T08:41:12.353Z,20.52
2022-12-04T08:42:14.116Z,23.25
2022-12-04T08:43:15.677Z,29.57
2022-12-04T08:44:17.214Z,25.55
2022-12-04T08:45:18.779Z,22.17
2022-12-04T08:46:20.572Z,23.90
2022-12-04T08:47:22.317Z,25.73
2022-12-04T08:48:23.889Z,24.77
2022-12-04T08:49:25.519Z,21.95
2022-12-04T08:50:27.387Z,23.30
2022-12-04T08:51:30.314Z,21.98
2022-12-04T08:52:32.275Z,23.08
2022-12-04T08:53:34.331Z,22.07
2022-12-04T08:54:36.376Z,22.98
2022-12-04T08:55:38.067Z,22.77
2022-12-04T08:56:39.701Z,18.92
2022-12-04T08:57:41.623Z,22.70
2022-12-04T08:58:43.305Z,20.75
2022-12-04T08:59:44.952Z,22.77
2022-12-04T09:00:46.632Z,26.67
2022-12-04T09:01:51.283Z,24.85
2022-12-04T09:02:53.328Z,23.70
2022-12-04T09:03:55.266Z,25.10
2022-12-04T09:04:57.308Z,26.55
2022-12-04T09:06:03.546Z,29.08
2022-12-04T09:07:05.473Z,25.77
2022-12-04T09:08:07.660Z,25.70
2022-12-04T09:09:09.651Z,27.60
2022-12-04T09:10:12.205Z,27.83
2022-12-04T09:11:19.472Z,26.08
2022-12-04T09:12:22.653Z,29.77
2022-12-04T09:13:24.318Z,25.55
2022-12-04T09:14:26.611Z,34.03
2022-12-04T09:15:28.597Z,32.70
2022-12-04T09:16:33.973Z,27.55
2022-12-04T09:17:36.793Z,34.38
2022-12-04T09:18:39.029Z,37.33
2022-12-04T09:19:41.099Z,34.78
2022-12-04T09:20:42.831Z,34.65
2022-12-04T09:21:45.795Z,40.55
2022-12-04T09:23:03.398Z,30.60
2022-12-04T09:24:06.001Z,50.28
2022-12-04T09:25:08.186Z,55.17
2022-12-04T09:26:19.439Z,31.63
2022-12-04T09:27:21.409Z,31.25
2022-12-04T09:28:23.558Z,53.90
2022-12-04T09:29:26.576Z,70.35
2022-12-04T09:30:28.753Z,70.38
2022-12-04T09:31:31.309Z,55.95
2022-12-04T09:32:33.315Z,50.85
2022-12-04T09:33:37.499Z,59.13
2022-12-04T09:34:40.297Z,70.30
2022-12-04T09:35:42.252Z,38.03
2022-12-04T09:36:44.262Z,33.55
2022-12-04T09:37:46.237Z,35.90
2022-12-04T09:38:50.060Z,26.58
2022-12-04T09:39:52.046Z,37.28
2022-12-04T09:41:12.623Z,31.60
2022-12-04T09:42:20.188Z,32.88
2022-12-04T09:43:37.026Z,34.33
2022-12-04T09:44:40.593Z,30.30
2022-12-04T09:45:45.950Z,29.13
2022-12-04T09:46:55.719Z,27.47
2022-12-04T09:47:58.729Z,23.35
2022-12-04T09:49:03.475Z,23.63
2022-12-04T09:50:27.192Z,24.08
2022-12-04T09:51:28.904Z,43.38
2022-12-04T09:52:58.999Z,40.90
2022-12-04T09:54:09.112Z,47.65
2022-12-04T09:55:15.528Z,45.03
2022-12-04T09:56:21.279Z,47.05
2022-12-04T09:57:37.125Z,46.30
2022-12-04T09:59:04.510Z,55.87
2022-12-04T10:00:11.987Z,74.80
2022-12-04T10:01:20.145Z,31.20
2022-12-04T10:02:35.790Z,41.92
2022-12-04T10:03:39.941Z,26.83
2022-12-04T10:04:42.485Z,39.80
2022-12-04T10:05:50.591Z,45.22
2022-12-04T10:07:13.126Z,27.70
2022-12-04T10:08:25.389Z,44.47
2022-12-04T10:09:56.508Z,49.67
2022-12-04T10:11:21.613Z,35.53
2022-12-04T10:12:38.583Z,38.22
2022-12-04T10:14:07.336Z,39.35
2022-12-04T10:15:32.892Z,30.67
2022-12-04T10:16:50.630Z,26.58
2022-12-04T10:18:13.785Z,24.67
2022-12-04T10:19:28.349Z,30.15
2022-12-04T10:21:08.762Z,23.83
2022-12-04T10:23:01.841Z,35.88
2022-12-04T10:24:16.038Z,24.05
2022-12-04T10:25:24.620Z,43.27
2022-12-04T10:26:29.578Z,47.10
2022-12-04T10:27:34.105Z,58.97
2022-12-04T10:28:39.825Z,42.13
2022-12-04T10:29:41.818Z,47.78
2022-12-04T10:30:43.484Z,53.22
2022-12-04T10:31:45.233Z,42.28
2022-12-04T10:32:47.168Z,49.78
2022-12-04T10:34:20.060Z,32.30
2022-12-04T10:35:24.209Z,30.70
2022-12-04T10:36:30.666Z,26.97
2022-12-04T10:37:33.210Z,41.78
2022-12-04T10:38:52.879Z,52.83
2022-12-04T10:39:56.919Z,42.47
2022-12-04T10:41:03.211Z,43.55
2022-12-04T10:42:06.807Z,27.55
2022-12-04T10:43:20.719Z,28.13
2022-12-04T10:44:22.376Z,27.58
2022-12-04T10:45:24.107Z,28.77
2022-12-04T10:46:28.074Z,27.42
2022-12-04T10:47:29.885Z,28.23
2022-12-04T10:48:34.268Z,28.95
2022-12-04T10:49:35.897Z,28.30
2022-12-04T10:50:37.586Z,29.30
2022-12-04T10:51:40.745Z,27.58
2022-12-04T10:52:42.353Z,24.23
2022-12-04T10:53:44.515Z,29.45
2022-12-04T10:54:51.467Z,29.20
2022-12-04T10:55:53.092Z,34.67
2022-12-04T10:57:01.211Z,28.90
2022-12-04T10:58:03.075Z,28.80
2022-12-04T10:59:05.283Z,28.65
2022-12-04T11:00:25.607Z,28.80
2022-12-04T11:01:29.151Z,28.13
2022-12-04T11:02:32.846Z,29.38
2022-12-04T11:03:34.763Z,30.67
2022-12-04T11:04:36.702Z,25.90
2022-12-04T11:05:45.533Z,28.90
2022-12-04T11:06:47.893Z,26.02
2022-12-04T11:07:49.605Z,23.73
2022-12-04T11:08:51.984Z,26.43
2022-12-04T11:10:06.788Z,26.98
2022-12-04T11:11:11.394Z,26.55
2022-12-04T11:12:20.121Z,30.58
2022-12-04T11:13:23.257Z,26.83
2022-12-04T11:14:24.943Z,27.98
2022-12-04T11:15:26.668Z,29.27
2022-12-04T11:16:39.648Z,28.73
2022-12-04T11:17:41.307Z,31.17
2022-12-04T11:18:49.687Z,32.70
2022-12-04T11:20:02.852Z,25.70
2022-12-04T11:21:18.772Z,30.05
2022-12-04T11:22:20.558Z,28.73
2022-12-04T11:23:22.406Z,30.80
2022-12-04T11:24:34.415Z,42.03
2022-12-04T11:25:38.370Z,41.33
2022-12-04T11:26:42.030Z,44.38
2022-12-04T11:27:46.219Z,32.60
2022-12-04T11:28:51.419Z,71.93
2022-12-04T11:29:53.687Z,30.80
2022-12-04T11:30:56.603Z,26.93
2022-12-04T11:32:04.087Z,82.72
2022-12-04T11:33:17.850Z,55.65
2022-12-04T11:34:21.819Z,56.92
2022-12-04T11:35:25.514Z,51.92
2022-12-04T11:36:31.382Z,78.65
2022-12-04T11:37:34.529Z,96.15
2022-12-04T11:38:36.657Z,66.30
2022-12-04T11:39:41.279Z,41.22
2022-12-04T11:40:50.975Z,36.10
2022-12-04T11:42:06.506Z,38.53
2022-12-04T11:43:11.085Z,45.95
2022-12-04T11:44:25.632Z,30.90
2022-12-04T11:45:28.096Z,38.08
2022-12-04T11:46:31.935Z,53.40
2022-12-04T11:47:33.841Z,44.50
2022-12-04T11:48:45.460Z,51.03
2022-12-04T11:50:03.833Z,47.63
2022-12-04T11:51:24.740Z,34.50
2022-12-04T11:52:45.981Z,34.20
2022-12-04T11:54:03.246Z,56.43
2022-12-04T11:55:28.508Z,47.47
2022-12-04T11:56:46.083Z,37.00
2022-12-04T11:58:20.005Z,34.88
2022-12-04T11:59:34.262Z,28.58
2022-12-04T12:00:38.706Z,27.83
2022-12-04T12:01:48.220Z,29.58
2022-12-04T12:03:12.003Z,26.55
2022-12-04T12:04:45.486Z,26.33
2022-12-04T12:06:05.813Z,26.00
2022-12-04T12:07:34.720Z,25.60
2022-12-04T12:08:54.865Z,25.35
2022-12-04T12:10:17.540Z,24.17
2022-12-04T12:11:33.008Z,28.33
2022-12-04T12:12:53.862Z,23.73
2022-12-04T12:13:58.335Z,28.98
2022-12-04T12:14:59.923Z,31.58
2022-12-04T12:16:25.656Z,28.33
2022-12-04T12:17:36.452Z,25.95
2022-12-04T12:19:03.174Z,25.50
2022-12-04T12:20:07.481Z,28.43
2022-12-04T12:21:27.799Z,27.40
2022-12-04T12:23:00.121Z,28.73
2022-12-04T12:24:09.991Z,24.35
2022-12-04T12:25:28.321Z,24.67
2022-12-04T12:26:39.573Z,24.35
2022-12-04T12:27:51.174Z,26.67
2022-12-04T12:29:18.298Z,27.25
2022-12-04T12:30:21.431Z,29.15
2022-12-04T12:31:34.255Z,36.95
2022-12-04T12:33:00.023Z,26.70
2022-12-04T12:34:12.661Z,27.30
2022-12-04T12:35:23.512Z,28.55
2022-12-04T12:36:25.714Z,30.02
2022-12-04T12:37:53.379Z,32.97
2022-12-04T12:39:01.729Z,31.88
2022-12-04T12:40:07.170Z,30.63
2022-12-04T12:41:20.367Z,32.28
2022-12-04T12:42:26.948Z,26.90
2022-12-04T12:43:31.898Z,25.05
2022-12-04T12:44:41.160Z,25.20
2022-12-04T12:45:51.579Z,27.55
2022-12-04T12:46:55.628Z,34.60
2022-12-04T12:48:00.964Z,30.85
2022-12-04T12:49:13.340Z,31.85
2022-12-04T12:50:22.082Z,27.70
2022-12-04T12:51:42.444Z,32.70
2022-12-04T12:52:47.282Z,39.63
2022-12-04T12:53:51.684Z,29.55
2022-12-04T12:55:18.275Z,26.02
2022-12-04T12:56:39.925Z,24.93
2022-12-04T12:57:47.860Z,40.25
2022-12-04T12:58:52.946Z,51.70
2022-12-04T13:00:00.578Z,35.65
2022-12-04T13:01:20.456Z,80.90
2022-12-04T13:02:31.015Z,77.03
2022-12-04T13:03:39.040Z,51.50
2022-12-04T13:04:42.300Z,57.28
2022-12-04T13:05:45.711Z,57.35
2022-12-04T13:06:49.169Z,139.45
2022-12-04T13:08:18.653Z,81.10
2022-12-04T13:09:30.142Z,96.28
2022-12-04T13:10:37.947Z,73.20
2022-12-04T13:11:39.797Z,39.78
2022-12-04T13:12:57.020Z,54.47
2022-12-04T13:14:00.667Z,48.33
2022-12-04T13:15:02.218Z,61.35
2022-12-04T13:16:08.755Z,68.95
2022-12-04T13:17:28.903Z,55.30
2022-12-04T13:18:34.309Z,42.15
2022-12-04T13:19:43.523Z,54.23
2022-12-04T13:20:50.410Z,68.45
2022-12-04T13:22:37.163Z,40.53
2022-12-04T13:23:46.196Z,30.75
2022-12-04T13:24:50.322Z,45.58
2022-12-04T13:26:14.308Z,34.70
2022-12-04T13:27:33.882Z,38.53
2022-12-04T13:29:05.662Z,55.80
2022-12-04T13:30:24.430Z,59.83
2022-12-04T13:31:41.846Z,39.63
2022-12-04T13:33:11.421Z,29.00
2022-12-04T13:34:46.771Z,28.02
2022-12-04T13:36:12.529Z,30.95
2022-12-04T13:37:29.355Z,34.30
2022-12-04T13:38:58.283Z,36.28
2022-12-04T13:40:15.278Z,38.05
2022-12-04T13:41:24.176Z,30.27
2022-12-04T13:42:26.264Z,27.80
2022-12-04T13:43:28.829Z,31.08
2022-12-04T13:44:30.460Z,33.05
2022-12-04T13:45:32.827Z,30.23
2022-12-04T13:46:39.437Z,28.33
2022-12-04T13:47:41.082Z,29.80
2022-12-04T13:48:42.828Z,30.30
2022-12-04T13:49:46.000Z,29.48
2022-12-04T13:50:47.569Z,28.08
2022-12-04T13:51:49.287Z,33.45
2022-12-04T13:52:50.847Z,35.80
2022-12-04T13:54:04.134Z,30.08
2022-12-04T13:55:22.256Z,33.33
2022-12-04T13:56:28.848Z,46.23
2022-12-04T13:57:30.429Z,32.15
2022-12-04T13:58:33.506Z,28.75
2022-12-04T13:59:37.383Z,39.60
2022-12-04T14:00:43.114Z,37.15
2022-12-04T14:01:52.807Z,37.28
2022-12-04T14:02:56.131Z,30.10
2022-12-04T14:03:59.603Z,33.10
2022-12-04T14:05:08.012Z,30.38
2022-12-04T14:06:39.836Z,31.27
2022-12-04T14:07:59.201Z,26.93
2022-12-04T14:09:05.002Z,27.73
2022-12-04T14:10:17.014Z,30.08
2022-12-04T14:11:19.004Z,34.70
2022-12-04T14:12:28.493Z,32.88
2022-12-04T14:13:51.201Z,34.25
2022-12-04T14:15:01.742Z,29.45
2022-12-04T14:16:05.078Z,28.50
2022-12-04T14:17:06.885Z,28.08
2022-12-04T14:18:11.777Z,32.50
2022-12-04T14:19:27.267Z,25.97
2022-12-04T14:20:30.919Z,25.98
2022-12-04T14:21:43.408Z,26.95
2022-12-04T14:22:45.594Z,28.08